createdAt,value
2019-04-04T00:01:51.701Z,10.61
2019-04-04T00:04:21.831Z,10.44
2019-04-04T00:06:48.832Z,10.48
2019-04-04T00:09:17.752Z,10.63
2019-04-04T00:11:45.231Z,10.64
2019-04-04T00:14:13.414Z,10.61
2019-04-04T00:16:40.932Z,10.63
2019-04-04T00:19:08.330Z,10.72
2019-04-04T00:21:35.711Z,10.66
2019-04-04T00:24:03.276Z,10.24
2019-04-04T00:26:30.660Z,9.68
2019-04-04T00:29:01.184Z,9.39
2019-04-04T00:31:27.609Z,9.45
2019-04-04T00:33:55.874Z,9.33
2019-04-04T00:36:23.852Z,9.11
2019-04-04T00:38:51.442Z,9.18
2019-04-04T00:41:18.831Z,9.14
2019-04-04T00:43:46.252Z,9.31
2019-04-04T00:46:13.641Z,9.15
2019-04-04T00:48:41.015Z,8.92
2019-04-04T00:51:08.619Z,8.88
2019-04-04T00:53:36.154Z,9.03
2019-04-04T00:56:03.711Z,8.95
2019-04-04T00:58:31.094Z,8.77
2019-04-04T01:00:59.131Z,9.07
2019-04-04T01:03:29.752Z,8.85
2019-04-04T01:05:55.792Z,8.42
2019-04-04T01:08:23.170Z,8.63
2019-04-04T01:10:50.559Z,8.94
2019-04-04T01:13:21.233Z,8.72
2019-04-04T01:15:49.032Z,8.36
2019-04-04T01:18:16.435Z,8.28
2019-04-04T01:20:43.787Z,8.46
2019-04-04T01:23:11.177Z,8.38
2019-04-04T01:25:38.552Z,8.45
2019-04-04T01:28:06.141Z,8.24
2019-04-04T01:30:35.211Z,8.17
2019-04-04T01:33:03.874Z,8.34
2019-04-04T01:35:31.395Z,8.29
2019-04-04T01:37:58.880Z,8.22
2019-04-04T01:40:26.662Z,8.09
2019-04-04T01:42:54.046Z,7.98
2019-04-04T01:45:21.402Z,8.11
2019-04-04T01:47:48.753Z,7.86
2019-04-04T01:50:16.038Z,8.08
2019-04-04T01:52:43.314Z,7.82
2019-04-04T01:55:10.576Z,7.75
2019-04-04T01:57:38.934Z,7.93
2019-04-04T02:00:09.241Z,7.67
2019-04-04T02:02:36.469Z,7.93
2019-04-04T02:05:05.693Z,7.92
2019-04-04T02:07:32.952Z,8.00
2019-04-04T02:10:00.203Z,7.94
2019-04-04T02:12:27.529Z,7.40
2019-04-04T02:14:54.826Z,7.40
2019-04-04T02:17:22.303Z,7.57
2019-04-04T02:19:50.134Z,7.34
2019-04-04T02:22:17.573Z,7.49
2019-04-04T02:24:44.812Z,7.43
2019-04-04T02:27:12.072Z,7.16
2019-04-04T02:29:39.945Z,7.65
2019-04-04T02:32:11.913Z,7.11
2019-04-04T02:34:39.216Z,7.30
2019-04-04T02:37:06.446Z,7.29
2019-04-04T02:39:35.283Z,7.12
2019-04-04T02:42:02.954Z,7.19
2019-04-04T02:44:32.267Z,7.41
2019-04-04T02:46:59.410Z,7.11
2019-04-04T02:49:29.221Z,7.08
2019-04-04T02:51:55.798Z,7.02
2019-04-04T02:54:24.666Z,6.83
2019-04-04T02:56:52.188Z,7.40
2019-04-04T02:59:21.490Z,7.03
2019-04-04T03:01:48.584Z,7.18
2019-04-04T03:04:15.938Z,6.75
2019-04-04T03:06:43.287Z,7.09
2019-04-04T03:09:10.704Z,7.15
2019-04-04T03:11:42.380Z,6.96
2019-04-04T03:14:09.627Z,6.65
2019-04-04T03:16:36.867Z,6.61
2019-04-04T03:19:04.250Z,6.98
2019-04-04T03:21:31.470Z,6.83
2019-04-04T03:23:58.718Z,6.94
2019-04-04T03:26:26.013Z,7.13
2019-04-04T03:28:53.258Z,7.10
2019-04-04T03:31:20.676Z,6.49
2019-04-04T03:33:47.913Z,6.38
2019-04-04T03:36:15.170Z,6.06
2019-04-04T03:38:45.985Z,6.95
2019-04-04T03:41:11.573Z,6.22
2019-04-04T03:43:38.956Z,6.32
2019-04-04T03:46:06.226Z,5.94
2019-04-04T03:48:33.491Z,6.33
2019-04-04T03:51:04.069Z,6.53
2019-04-04T03:53:29.927Z,6.70
2019-04-04T03:56:00.318Z,6.40
2019-04-04T03:58:28.030Z,6.20
2019-04-04T04:00:55.415Z,6.27
2019-04-04T04:03:23.615Z,6.46
2019-04-04T04:05:50.930Z,6.52
2019-04-04T04:08:20.967Z,6.10
2019-04-04T04:10:47.419Z,6.08
2019-04-04T04:13:17.221Z,5.81
2019-04-04T04:15:44.075Z,5.73
2019-04-04T04:18:11.313Z,5.71
2019-04-04T04:20:38.561Z,6.45
2019-04-04T04:23:05.857Z,5.74
2019-04-04T04:25:36.596Z,6.14
2019-04-04T04:28:03.141Z,6.15
2019-04-04T04:30:30.734Z,6.37
2019-04-04T04:32:58.800Z,5.70
2019-04-04T04:35:26.012Z,6.16
2019-04-04T04:37:53.897Z,5.83
2019-04-04T04:40:21.550Z,6.26
2019-04-04T04:42:48.911Z,5.77
2019-04-04T04:45:16.271Z,5.53
2019-04-04T04:47:43.574Z,5.66
2019-04-04T04:50:10.928Z,5.41
2019-04-04T04:52:38.247Z,5.90
2019-04-04T04:55:05.561Z,5.73
2019-04-04T04:57:34.427Z,5.99
2019-04-04T05:00:02.029Z,5.61
2019-04-04T05:02:29.246Z,5.84
2019-04-04T05:04:57.247Z,5.35
2019-04-04T05:07:25.682Z,5.47
2019-04-04T05:09:52.907Z,5.39
2019-04-04T05:12:21.679Z,5.45
2019-04-04T05:14:49.269Z,5.55
2019-04-04T05:17:16.535Z,5.76
2019-04-04T05:19:45.146Z,5.80
2019-04-04T05:22:12.629Z,5.39
2019-04-04T05:24:39.969Z,5.36
2019-04-04T05:27:07.334Z,5.67
2019-04-04T05:29:34.570Z,5.54
2019-04-04T05:32:01.842Z,5.34
2019-04-04T05:34:30.398Z,5.58
2019-04-04T05:36:58.250Z,5.49
2019-04-04T05:39:25.575Z,5.34
2019-04-04T05:41:52.874Z,5.74
2019-04-04T05:44:20.149Z,5.75
2019-04-04T05:46:51.015Z,5.50
2019-04-04T05:49:16.666Z,5.25
2019-04-04T05:51:43.955Z,5.14
2019-04-04T05:54:11.232Z,5.25
2019-04-04T05:56:38.469Z,5.27
2019-04-04T05:59:05.688Z,5.02
2019-04-04T06:01:35.152Z,5.32
2019-04-04T06:04:03.935Z,5.44
2019-04-04T06:06:33.372Z,5.24
2019-04-04T06:09:00.518Z,5.17
2019-04-04T06:11:27.749Z,5.30
2019-04-04T06:13:54.992Z,5.22
2019-04-04T06:16:22.377Z,5.32
2019-04-04T06:18:49.637Z,5.15
2019-04-04T06:21:18.501Z,5.36
2019-04-04T06:23:46.131Z,5.57
2019-04-04T06:26:13.414Z,5.51
2019-04-04T06:28:40.726Z,5.23
2019-04-04T06:31:08.036Z,5.30
2019-04-04T06:33:35.968Z,5.99
2019-04-04T06:36:03.285Z,5.51
2019-04-04T06:38:30.534Z,5.80
2019-04-04T06:40:58.878Z,6.14
2019-04-04T06:43:28.190Z,5.81
2019-04-04T06:45:55.527Z,6.05
2019-04-04T06:48:22.866Z,5.73
2019-04-04T06:50:50.079Z,5.66
2019-04-04T06:53:17.329Z,5.88
2019-04-04T06:55:44.598Z,6.11
2019-04-04T06:58:11.835Z,6.08
2019-04-04T07:00:41.851Z,6.01
2019-04-04T07:03:08.249Z,6.10
2019-04-04T07:05:37.812Z,6.04
2019-04-04T07:08:04.694Z,6.55
2019-04-04T07:10:32.309Z,6.44
2019-04-04T07:13:09.687Z,6.85
2019-04-04T07:15:29.250Z,6.67
2019-04-04T07:17:56.670Z,7.00
2019-04-04T07:20:24.182Z,9.41
2019-04-04T07:22:51.704Z,8.44
2019-04-04T07:25:18.970Z,7.94
2019-04-04T07:27:47.407Z,7.79
2019-04-04T07:30:15.666Z,7.75
2019-04-04T07:32:42.923Z,7.60
2019-04-04T07:35:10.319Z,7.68
2019-04-04T07:37:37.567Z,7.72
2019-04-04T07:40:04.993Z,8.58
2019-04-04T07:42:33.249Z,8.92
2019-04-04T07:45:00.469Z,8.48
2019-04-04T07:47:27.754Z,8.21
2019-04-04T07:49:55.458Z,8.22
2019-04-04T07:52:22.749Z,9.52
2019-04-04T07:54:50.249Z,8.86
2019-04-04T07:57:19.748Z,8.53
2019-04-04T07:59:46.660Z,8.62
2019-04-04T08:02:13.910Z,8.99
2019-04-04T08:04:41.315Z,9.17
2019-04-04T08:07:08.579Z,10.23
2019-04-04T08:09:35.842Z,9.61
2019-04-04T08:12:03.189Z,9.96
2019-04-04T08:14:30.436Z,9.97
2019-04-04T08:16:57.726Z,9.83
2019-04-04T08:19:24.989Z,10.21
2019-04-04T08:21:52.272Z,10.11
2019-04-04T08:24:19.572Z,10.49
2019-04-04T08:26:46.836Z,10.93
2019-04-04T08:29:14.076Z,11.54
2019-04-04T08:31:41.397Z,10.86
2019-04-04T08:34:08.736Z,10.80
2019-04-04T08:36:36.098Z,11.53
2019-04-04T08:39:06.208Z,11.49
2019-04-04T08:41:33.468Z,11.27
2019-04-04T08:44:00.756Z,11.98
2019-04-04T08:46:28.032Z,12.09
2019-04-04T08:48:55.309Z,12.09
2019-04-04T08:51:22.540Z,12.17
2019-04-04T08:53:50.910Z,12.44
2019-04-04T08:56:18.190Z,12.41
2019-04-04T08:58:45.432Z,12.97
2019-04-04T09:01:12.766Z,12.82
2019-04-04T09:03:40.007Z,12.99
2019-04-04T09:06:07.306Z,13.41
2019-04-04T09:08:34.544Z,14.71
2019-04-04T09:11:01.917Z,14.95
2019-04-04T09:13:29.240Z,15.31
2019-04-04T09:15:56.467Z,15.83
2019-04-04T09:18:23.716Z,16.04
2019-04-04T09:20:51.075Z,15.94
2019-04-04T09:23:18.283Z,16.36
2019-04-04T09:25:45.515Z,16.01
2019-04-04T09:28:12.774Z,16.39
2019-04-04T09:30:40.450Z,16.25
2019-04-04T09:33:07.719Z,16.12
2019-04-04T09:35:34.924Z,15.79
2019-04-04T09:38:02.199Z,16.35
2019-04-04T09:40:29.473Z,15.88
2019-04-04T09:42:59.600Z,16.64
2019-04-04T09:45:27.201Z,16.67
2019-04-04T09:47:54.434Z,16.44
2019-04-04T09:50:21.630Z,16.51
2019-04-04T09:52:48.922Z,16.85
2019-04-04T09:55:16.163Z,17.18
2019-04-04T09:57:43.427Z,17.22
2019-04-04T10:00:12.246Z,17.22
2019-04-04T10:02:39.649Z,17.98
2019-04-04T10:05:07.495Z,17.28
2019-04-04T10:07:34.739Z,17.68
2019-04-04T10:10:01.954Z,17.71
2019-04-04T10:12:29.713Z,17.72
2019-04-04T10:14:57.182Z,17.20
2019-04-04T10:17:24.448Z,17.30
2019-04-04T10:19:51.684Z,17.25
2019-04-04T10:22:18.899Z,17.23
2019-04-04T10:24:46.162Z,17.28
2019-04-04T10:27:13.440Z,16.87
2019-04-04T10:29:40.710Z,17.76
2019-04-04T10:32:07.949Z,17.58
2019-04-04T10:34:35.528Z,17.69
2019-04-04T10:37:02.772Z,17.77
2019-04-04T10:39:32.716Z,18.45
2019-04-04T10:41:59.188Z,18.43
2019-04-04T10:44:26.418Z,18.33
2019-04-04T10:46:53.748Z,18.48
2019-04-04T10:49:20.959Z,19.01
2019-04-04T10:51:48.231Z,18.29
2019-04-04T10:54:16.477Z,17.92
2019-04-04T10:56:43.788Z,17.90
2019-04-04T10:59:11.039Z,18.54
2019-04-04T11:01:38.311Z,18.51
2019-04-04T11:04:05.612Z,18.02
2019-04-04T11:06:32.894Z,17.68
2019-04-04T11:09:00.180Z,17.93
2019-04-04T11:11:27.491Z,17.83
2019-04-04T11:13:54.850Z,17.80
2019-04-04T11:16:30.096Z,18.06
2019-04-04T11:18:51.614Z,18.49
2019-04-04T11:21:18.868Z,18.99
2019-04-04T11:23:46.232Z,18.51
2019-04-04T11:26:13.489Z,18.48
2019-04-04T11:28:40.736Z,19.01
2019-04-04T11:31:08.055Z,18.42
2019-04-04T11:33:35.324Z,18.37
2019-04-04T11:36:02.547Z,18.46
2019-04-04T11:38:29.832Z,18.58
2019-04-04T11:40:57.103Z,18.03
2019-04-04T11:43:24.388Z,18.27
2019-04-04T11:45:51.666Z,18.40
2019-04-04T11:48:19.001Z,18.55
2019-04-04T11:50:46.290Z,18.66
2019-04-04T11:53:13.574Z,18.90
2019-04-04T11:55:40.864Z,18.79
2019-04-04T11:58:08.235Z,18.24
2019-04-04T12:00:37.272Z,18.60
2019-04-04T12:03:04.736Z,19.25
2019-04-04T12:05:32.021Z,19.23
2019-04-04T12:07:59.269Z,19.36
2019-04-04T12:10:26.566Z,18.86
2019-04-04T12:12:53.806Z,18.96
2019-04-04T12:15:21.075Z,19.05
2019-04-04T12:17:48.386Z,18.82
2019-04-04T12:20:15.728Z,18.95
2019-04-04T12:22:43.012Z,19.31
2019-04-04T12:25:10.333Z,19.72
2019-04-04T12:27:37.574Z,20.05
2019-04-04T12:30:05.172Z,19.92
2019-04-04T12:32:32.453Z,20.06
2019-04-04T12:34:59.761Z,19.64
2019-04-04T12:37:27.108Z,19.40
2019-04-04T12:39:54.355Z,20.08
2019-04-04T12:42:21.768Z,20.10
2019-04-04T12:44:49.493Z,19.23
2019-04-04T12:47:16.798Z,19.30
2019-04-04T12:49:44.007Z,20.63
2019-04-04T12:52:11.334Z,20.11
2019-04-04T12:54:38.589Z,20.20
2019-04-04T12:57:06.057Z,20.18
2019-04-04T12:59:33.346Z,19.72
2019-04-04T13:02:00.618Z,19.55
2019-04-04T13:04:31.900Z,20.73
2019-04-04T13:06:57.032Z,20.23
2019-04-04T13:09:24.293Z,20.09
2019-04-04T13:11:51.569Z,20.52
2019-04-04T13:14:18.895Z,20.33
2019-04-04T13:16:46.155Z,20.31
2019-04-04T13:19:13.423Z,20.20
2019-04-04T13:21:40.789Z,20.38
2019-04-04T13:24:08.017Z,20.18
2019-04-04T13:26:35.349Z,20.09
2019-04-04T13:29:02.685Z,19.70
2019-04-04T13:31:30.015Z,20.26
2019-04-04T13:33:57.230Z,20.06
2019-04-04T13:36:24.489Z,19.76
2019-04-04T13:38:51.737Z,19.99
2019-04-04T13:41:22.248Z,19.93
2019-04-04T13:43:48.232Z,19.81
2019-04-04T13:46:15.490Z,20.08
2019-04-04T13:48:43.635Z,19.86
2019-04-04T13:51:11.509Z,19.92
2019-04-04T13:53:41.264Z,19.93
2019-04-04T13:56:07.941Z,20.02
2019-04-04T13:58:35.244Z,19.67
2019-04-04T14:01:02.624Z,20.12
2019-04-04T14:03:29.896Z,20.19
2019-04-04T14:05:57.182Z,19.65
2019-04-04T14:08:24.455Z,19.03
2019-04-04T14:10:58.059Z,19.42
2019-04-04T14:13:20.915Z,19.05
2019-04-04T14:15:48.176Z,18.73
2019-04-04T14:18:21.232Z,18.63
2019-04-04T14:20:49.330Z,18.85
2019-04-04T14:23:16.615Z,19.44
2019-04-04T14:25:43.852Z,19.17
2019-04-04T14:28:11.165Z,19.20
2019-04-04T14:30:38.359Z,18.98
2019-04-04T14:33:05.631Z,18.92
2019-04-04T14:35:32.940Z,18.59
2019-04-04T14:38:00.217Z,18.40
2019-04-04T14:40:27.548Z,18.67
2019-04-04T14:42:54.843Z,18.64
2019-04-04T14:45:22.179Z,19.02
2019-04-04T14:47:49.589Z,18.88
2019-04-04T14:50:16.840Z,19.21
2019-04-04T14:52:44.216Z,18.31
2019-04-04T14:55:12.024Z,17.95
2019-04-04T14:57:39.379Z,17.54
2019-04-04T15:00:09.620Z,17.61
2019-04-04T15:02:36.976Z,17.31
2019-04-04T15:05:04.430Z,17.17
2019-04-04T15:07:31.773Z,17.09
2019-04-04T15:09:59.045Z,16.94
2019-04-04T15:12:26.563Z,16.91
2019-04-04T15:14:53.911Z,16.75
2019-04-04T15:17:21.331Z,16.68
2019-04-04T15:19:49.000Z,16.73
2019-04-04T15:22:16.470Z,16.69
2019-04-04T15:24:44.070Z,16.36
2019-04-04T15:27:11.475Z,16.50
2019-04-04T15:29:38.826Z,16.17
2019-04-04T15:32:06.216Z,15.68
2019-04-04T15:34:33.595Z,15.45
2019-04-04T15:37:01.290Z,14.76
2019-04-04T15:39:28.807Z,14.42
2019-04-04T15:41:57.062Z,14.32
2019-04-04T15:44:24.601Z,13.82
2019-04-04T15:46:52.169Z,13.57
2019-04-04T15:49:19.610Z,13.90
2019-04-04T15:51:47.115Z,13.40
2019-04-04T15:54:14.448Z,13.45
2019-04-04T15:56:42.792Z,13.60
2019-04-04T15:59:10.114Z,12.61
2019-04-04T16:01:37.554Z,12.41
2019-04-04T16:04:05.069Z,12.48
2019-04-04T16:06:32.727Z,12.29
2019-04-04T16:09:00.190Z,12.36
2019-04-04T16:11:27.678Z,12.14
2019-04-04T16:13:55.083Z,12.33
2019-04-04T16:16:22.623Z,11.42
2019-04-04T16:18:50.032Z,10.99
2019-04-04T16:21:17.828Z,11.46
2019-04-04T16:23:45.756Z,11.36
2019-04-04T16:26:14.819Z,11.12
2019-04-04T16:28:42.418Z,11.31
2019-04-04T16:31:09.887Z,10.99
2019-04-04T16:33:37.406Z,10.94
2019-04-04T16:36:05.535Z,10.68
2019-04-04T16:38:33.274Z,10.39
2019-04-04T16:41:00.844Z,10.61
2019-04-04T16:43:28.220Z,10.25
2019-04-04T16:45:55.753Z,10.26
2019-04-04T16:48:23.355Z,10.14
2019-04-04T16:50:50.995Z,10.00
2019-04-04T16:53:18.593Z,10.07
2019-04-04T16:55:46.145Z,9.93
2019-04-04T16:58:13.676Z,9.85
2019-04-04T17:00:41.809Z,9.73
2019-04-04T17:03:09.390Z,9.70
2019-04-04T17:05:40.341Z,9.68
2019-04-04T17:08:08.017Z,9.28
2019-04-04T17:10:36.729Z,9.49
2019-04-04T17:13:04.621Z,9.05
2019-04-04T17:15:32.675Z,9.34
2019-04-04T17:18:00.399Z,8.83
2019-04-04T17:20:28.097Z,8.71
2019-04-04T17:22:56.069Z,8.79
2019-04-04T17:25:25.404Z,8.81
2019-04-04T17:27:53.382Z,8.64
2019-04-04T17:30:22.339Z,8.55
2019-04-04T17:32:50.335Z,8.38
2019-04-04T17:35:18.888Z,8.75
2019-04-04T17:37:47.001Z,8.32
2019-04-04T17:40:15.189Z,8.54
2019-04-04T17:42:43.409Z,8.46
2019-04-04T17:45:11.989Z,8.72
2019-04-04T17:47:39.882Z,8.52
2019-04-04T17:50:10.146Z,8.48
2019-04-04T17:52:38.088Z,8.30
2019-04-04T17:55:07.405Z,8.18
2019-04-04T17:57:36.208Z,8.21
2019-04-04T18:00:09.600Z,8.50
2019-04-04T18:02:37.561Z,8.55
2019-04-04T18:05:06.137Z,8.45
2019-04-04T18:07:34.062Z,8.44
2019-04-04T18:10:01.951Z,8.18
2019-04-04T18:12:39.699Z,7.93
2019-04-04T18:14:59.662Z,8.15
2019-04-04T18:17:28.442Z,7.98
2019-04-04T18:19:56.377Z,8.16
2019-04-04T18:22:26.310Z,7.85
2019-04-04T18:24:54.033Z,7.89
2019-04-04T18:27:21.819Z,8.05
2019-04-04T18:29:49.827Z,8.34
2019-04-04T18:32:17.557Z,7.90
2019-04-04T18:34:45.273Z,8.04
2019-04-04T18:37:13.031Z,8.05
2019-04-04T18:39:40.932Z,7.95
2019-04-04T18:42:08.845Z,7.88
2019-04-04T18:44:36.815Z,8.01
2019-04-04T18:47:04.962Z,7.78
2019-04-04T18:49:32.629Z,7.63
2019-04-04T18:52:01.277Z,7.70
2019-04-04T18:54:29.636Z,7.86
2019-04-04T18:56:57.586Z,7.83
2019-04-04T18:59:26.967Z,7.90
2019-04-04T19:01:55.123Z,7.41
2019-04-04T19:04:23.236Z,7.59
2019-04-04T19:06:51.332Z,7.83
2019-04-04T19:09:19.618Z,7.49
2019-04-04T19:11:47.364Z,7.66
2019-04-04T19:14:15.484Z,7.74
2019-04-04T19:16:44.383Z,7.59
2019-04-04T19:19:12.140Z,7.64
2019-04-04T19:21:40.973Z,7.69
2019-04-04T19:24:11.596Z,7.41
2019-04-04T19:26:39.264Z,7.56
2019-04-04T19:29:11.815Z,7.33
2019-04-04T19:31:40.371Z,7.38
2019-04-04T19:34:09.775Z,7.53
2019-04-04T19:36:37.564Z,7.48
2019-04-04T19:39:09.535Z,7.52
2019-04-04T19:41:37.398Z,7.55
2019-04-04T19:44:05.277Z,7.36
2019-04-04T19:46:37.219Z,7.26
2019-04-04T19:49:02.951Z,7.34
2019-04-04T19:51:32.215Z,7.45
2019-04-04T19:54:00.243Z,7.17
2019-04-04T19:56:29.346Z,7.03
2019-04-04T19:58:57.572Z,7.10
2019-04-04T20:01:25.786Z,7.44
2019-04-04T20:03:53.501Z,7.03
2019-04-04T20:06:21.113Z,7.20
2019-04-04T20:08:53.655Z,7.09
2019-04-04T20:11:20.657Z,7.28
2019-04-04T20:13:48.296Z,7.16
2019-04-04T20:16:16.137Z,7.21
2019-04-04T20:18:43.708Z,7.04
2019-04-04T20:21:11.764Z,7.26
2019-04-04T20:23:39.413Z,6.90
2019-04-04T20:26:07.521Z,7.00
2019-04-04T20:28:36.044Z,6.84
2019-04-04T20:31:03.717Z,6.99
2019-04-04T20:33:31.232Z,7.03
2019-04-04T20:35:58.978Z,7.03
2019-04-04T20:38:26.662Z,7.07
2019-04-04T20:40:54.294Z,6.82
2019-04-04T20:43:21.928Z,6.96
2019-04-04T20:45:49.659Z,7.16
2019-04-04T20:48:17.140Z,6.85
2019-04-04T20:50:44.832Z,6.81
2019-04-04T20:53:12.498Z,6.76
2019-04-04T20:55:40.249Z,6.98
2019-04-04T20:58:07.573Z,7.08
2019-04-04T21:00:35.118Z,7.00
2019-04-04T21:03:02.707Z,6.80
2019-04-04T21:05:30.182Z,6.80
2019-04-04T21:07:57.478Z,6.71
2019-04-04T21:10:24.831Z,6.92
2019-04-04T21:12:52.163Z,6.72
2019-04-04T21:15:19.465Z,6.73
2019-04-04T21:17:46.795Z,6.24
2019-04-04T21:20:14.072Z,6.26
2019-04-04T21:22:41.337Z,6.38
2019-04-04T21:25:08.698Z,6.56
2019-04-04T21:27:36.042Z,6.39
2019-04-04T21:30:03.669Z,6.20
2019-04-04T21:32:31.261Z,6.42
2019-04-04T21:34:58.564Z,5.84
2019-04-04T21:37:25.787Z,6.63
2019-04-04T21:39:53.056Z,6.56
2019-04-04T21:42:20.361Z,5.78
2019-04-04T21:44:47.622Z,5.97
2019-04-04T21:47:14.909Z,5.54
2019-04-04T21:49:42.692Z,5.75
2019-04-04T21:52:09.901Z,5.66
2019-04-04T21:54:37.174Z,5.78
2019-04-04T21:57:04.382Z,5.21
2019-04-04T21:59:31.612Z,5.41
2019-04-04T22:01:58.953Z,5.48
2019-04-04T22:04:26.245Z,6.24
2019-04-04T22:06:53.491Z,5.32
2019-04-04T22:09:20.867Z,5.56
2019-04-04T22:11:48.120Z,5.39
2019-04-04T22:14:21.712Z,5.56
2019-04-04T22:16:44.553Z,5.56
2019-04-04T22:19:11.789Z,5.39
2019-04-04T22:21:39.026Z,5.31
2019-04-04T22:24:06.309Z,5.10
2019-04-04T22:26:33.615Z,5.80
2019-04-04T22:29:00.957Z,4.82
2019-04-04T22:31:28.212Z,4.92
2019-04-04T22:33:55.428Z,5.11
2019-04-04T22:36:22.738Z,5.07
2019-04-04T22:38:49.976Z,5.50
2019-04-04T22:41:17.249Z,5.02
2019-04-04T22:43:44.512Z,5.31
2019-04-04T22:46:11.734Z,5.22
2019-04-04T22:48:38.968Z,5.56
2019-04-04T22:51:06.229Z,5.03
2019-04-04T22:53:33.461Z,5.07
2019-04-04T22:56:00.724Z,5.42
2019-04-04T22:58:28.933Z,5.45
2019-04-04T23:00:56.466Z,4.93
2019-04-04T23:03:24.643Z,5.52
2019-04-04T23:05:51.847Z,5.30
2019-04-04T23:08:19.103Z,5.25
2019-04-04T23:10:46.363Z,5.09
2019-04-04T23:13:13.585Z,5.12
2019-04-04T23:15:40.815Z,4.77
2019-04-04T23:18:08.086Z,5.16
2019-04-04T23:20:35.329Z,5.02
2019-04-04T23:23:02.547Z,4.63
2019-04-04T23:25:29.841Z,4.73
2019-04-04T23:27:57.004Z,5.00
2019-04-04T23:30:24.255Z,4.73
2019-04-04T23:32:51.546Z,4.84
2019-04-04T23:35:18.773Z,4.81
2019-04-04T23:37:46.020Z,4.60
2019-04-04T23:40:13.287Z,4.59
2019-04-04T23:42:40.577Z,4.99
2019-04-04T23:45:07.952Z,5.21
2019-04-04T23:47:42.625Z,4.77
2019-04-04T23:50:04.566Z,5.07
2019-04-04T23:52:31.886Z,4.80
2019-04-04T23:54:59.111Z,4.79
2019-04-04T23:57:26.370Z,4.84
2019-04-04T23:59:53.669Z,4.92
